Boys 10 Yrs/Over 100m Freestyle - Heats (Declared Winners)

10 Yrs Age Group - Full Results

PlaceNameAaDClub Time  FINA Pt 50
1.Dominic BOOLS10Radford 1:11.05  253 34.03
2.Guy FARNSWORTH10NottmLeander 1:12.68  236 34.72
3.Luke CHAPMAN10Braunstone 1:15.62  209 35.95
4.Giovanni BALANUR10Sutton 1:15.95  207 36.14
5.Nicholas MELDRUM10Mansfield 1:17.32  196 36.83
6.Joseph SADLER10Sherwood 1:18.85  185 38.00
7.Harvey SANDS10Eckington 1:19.55  180 37.58
8.Yousef ABU MRAHEEL10Bramcote 1:20.92  171 39.29
9.William DARRINGTON10Sherwood 1:21.79  165 38.96
 Marik GOODWIN10Worksop DNC     

11 Yrs Age Group - Full Results

PlaceNameAaDClub Time  FINA Pt 50
1.Matthew FALLON11NottmLeander 1:05.81  318 31.53
2.Asher HUFFEN11CarltonForum 1:09.54  269 33.26
3.Adam PRING11Sherwood 1:09.87  266 33.73
4.Ryan WILCOX11Bramcote 1:11.33  250 34.39
5.Thomas WHITE11Arnold 1:11.34  249 34.05
6.Finlay CHAPMAN11Braunstone 1:11.76  245 34.93
7.Evan-Ross COGGINS11Bramcote 1:12.78  235 35.16
8.Adam HUDSON11Sutton 1:14.34  220 35.09
9.Oliver CLAY11Radford 1:16.59  202 36.76
10.Connor MARSH11Sutton 1:16.97  199 37.46
11.Kris MOODLEY11Calv Bing 1:17.81  192 37.32
12.James BRETT11Braunstone 1:20.34  175 36.71
13.Jake SAUNDERS11CarltonForum 1:24.59  149 39.21
 Adam WOOD11Dewsbury DNC     

12 Yrs Age Group - Full Results

PlaceNameAaDClub Time  FINA Pt 50
1.Jacob CARRINGTON12Calv Bing 1:04.57  337 30.94
2.Owen OTTAWAY12Sherwood 1:05.22  327 31.47
3.Joshua HARRIS12Bramcote 1:05.70  320 31.79
4.Samuel TEMPLETON12Retford 1:07.02  301 32.33
5.Jim FERGIE12Sutton 1:08.77  279 33.48
6.William HOGG12Eckington 1:09.73  267 33.12
7.Liam MEIKLE12Calv Bing 1:13.37  229 34.29
8.Zacc FEENSTRA12Radford 1:14.56  218 35.27

13 Yrs Age Group - Full Results

PlaceNameAaDClub Time  FINA Pt 50
1.Rhys TAYLOR13Mansfield 59.42  432 28.12
2.Matthew GRAY13South Lincs 1:00.35  412 28.90
3.Nathaniel WOOD13Sherwood 1:03.53  353 30.68
4.Ross LARGE13Bramcote 1:04.07  345 31.05
5.Liam MARSHALL13Retford 1:04.68  335 30.91
6.Benjamin FOULSTON13Bramcote 1:05.82  318 31.61
7.Matthew HULL13Sherwood 1:09.26  273 33.32
8.Joseph STATHER13Crewe Flyers 1:09.76  267 32.78
9.Liam MARSH13Sutton 1:13.24  231 35.19

14 Yrs Age Group - Full Results

PlaceNameAaDClub Time  FINA Pt 50
1.Ruslan GOLUBS14Sutton 56.28  509 26.86
2.Jordan BULL14Deepings 58.03  464 27.77
3.Bradley STATE14Radford 1:00.44  411 29.21
4.William FOSTER14Bramcote 1:01.92  382 29.75
5.Samuel INGHAM14Braunstone 1:02.34  374 30.01
6.Henry SLAWSON14Mansfield 1:02.91  364 29.69
7.Fabio INCERTI14Newark 1:04.80  333 31.34
8.Samuel WATSON14Mansfield 1:06.69  305 31.75
9.Joshua MITCHELL14CarltonForum 1:12.77  235 34.89

15 Yrs/Over Age Group - Full Results

PlaceNameAaDClub Time  FINA Pt 50
1.Oliver HEMPSALL18Mansfield 51.67  657 24.65
2.Alex WRAY15Deepings 54.04  575 25.73
3.Robert BARTON18Sherwood 55.14  541 26.32
4.Thomas HOWARTH16Mansfield 55.85  520 26.96
5.Tom MITCHELL15South Lincs 55.99  517 26.87
6.Christopher BAGULEY17Mansfield 56.48  503 26.58
7.Jake WHITWORTH17Sherwood 56.57  501 26.75
8.Samuel CREAK17Sutton 58.02  464 27.16
9.Jack RIGBY17Mansfield 58.68  449 26.72
10.Aaron GLOVER15Crewe Flyers 59.15  438 28.63
11.Brendan O'KEEFE16Mansfield 59.25  436 28.06
12.Sam MURDEN15Falcon Nttm 59.43  432 28.27
13.Stuart EASTWOOD15Crewe Flyers 1:00.67  406 28.85
14.Ryan RIMMER15Crewe Flyers 1:01.88  383 29.36
15.Joseph MAYE15Braunstone 1:02.95  363 29.90
16.Aaron LEE15Sutton 1:03.32  357 30.99
17.Matthew RADFORD17Mansfield 1:03.41  355 30.75
18.Liam O'KEEFE17Mansfield 1:04.11  344 30.76
19.Christopher NATHWANI-C15Radford 1:05.52  322 31.01
 Alex DRIVER15Arnold DNC     

UP